sensor_id;sensor_type;location;lat;lon;timestamp;pressure;altitude;pressure_sealevel;temperature;humidity
45357;BME280;31092;51.924;21.448;2023-11-21T00:01:27;99069.56;;;-0.18;100.00
45357;BME280;31092;51.924;21.448;2023-11-21T00:03:52;99047.59;;;-0.30;100.00
45357;BME280;31092;51.924;21.448;2023-11-21T00:06:20;99036.56;;;-0.35;100.00
45357;BME280;31092;51.924;21.448;2023-11-21T00:08:46;98962.22;;;-0.85;100.00
45357;BME280;31092;51.924;21.448;2023-11-21T00:11:11;98955.22;;;-0.86;100.00
45357;BME280;31092;51.924;21.448;2023-11-21T00:13:37;98973.59;;;-0.73;100.00
45357;BME280;31092;51.924;21.448;2023-11-21T00:16:03;99074.50;;;-0.13;100.00
45357;BME280;31092;51.924;21.448;2023-11-21T00:18:29;98984.03;;;-0.72;100.00
45357;BME280;31092;51.924;21.448;2023-11-21T00:20:55;99081.94;;;-0.18;100.00
45357;BME280;31092;51.924;21.448;2023-11-21T00:23:20;99060.72;;;-0.28;100.00
45357;BME280;31092;51.924;21.448;2023-11-21T00:25:46;98969.16;;;-0.84;100.00
45357;BME280;31092;51.924;21.448;2023-11-21T00:28:11;99053.03;;;-0.31;100.00
45357;BME280;31092;51.924;21.448;2023-11-21T00:30:37;98999.53;;;-0.67;100.00
45357;BME280;31092;51.924;21.448;2023-11-21T00:33:03;98978.66;;;-0.81;100.00
45357;BME280;31092;51.924;21.448;2023-11-21T00:35:29;98985.47;;;-0.67;100.00
45357;BME280;31092;51.924;21.448;2023-11-21T00:37:55;98999.34;;;-0.54;100.00
45357;BME280;31092;51.924;21.448;2023-11-21T00:40:20;99003.69;;;-0.53;100.00
45357;BME280;31092;51.924;21.448;2023-11-21T00:42:47;99002.75;;;-0.63;100.00
45357;BME280;31092;51.924;21.448;2023-11-21T00:45:12;99031.91;;;-0.54;100.00
45357;BME280;31092;51.924;21.448;2023-11-21T00:47:38;98994.88;;;-0.75;100.00
45357;BME280;31092;51.924;21.448;2023-11-21T00:50:04;98994.34;;;-0.68;100.00
45357;BME280;31092;51.924;21.448;2023-11-21T00:52:32;99003.41;;;-0.71;100.00
45357;BME280;31092;51.924;21.448;2023-11-21T00:54:57;99008.16;;;-0.65;100.00
45357;BME280;31092;51.924;21.448;2023-11-21T00:57:25;99006.03;;;-0.71;100.00
45357;BME280;31092;51.924;21.448;2023-11-21T00:59:51;99080.66;;;-0.24;100.00
45357;BME280;31092;51.924;21.448;2023-11-21T01:02:16;99016.69;;;-0.61;100.00
45357;BME280;31092;51.924;21.448;2023-11-21T01:04:42;99072.13;;;-0.28;100.00
45357;BME280;31092;51.924;21.448;2023-11-21T01:07:08;99104.88;;;-0.08;100.00
45357;BME280;31092;51.924;21.448;2023-11-21T01:09:34;99005.91;;;-0.69;100.00
45357;BME280;31092;51.924;21.448;2023-11-21T01:12:00;99090.13;;;-0.21;100.00
45357;BME280;31092;51.924;21.448;2023-11-21T01:14:26;99105.41;;;-0.14;100.00
45357;BME280;31092;51.924;21.448;2023-11-21T01:16:54;99091.84;;;-0.20;100.00
45357;BME280;31092;51.924;21.448;2023-11-21T01:19:20;99066.50;;;-0.34;100.00
45357;BME280;31092;51.924;21.448;2023-11-21T01:21:45;99029.22;;;-0.63;100.00
45357;BME280;31092;51.924;21.448;2023-11-21T01:24:11;99093.94;;;-0.35;100.00
45357;BME280;31092;51.924;21.448;2023-11-21T01:26:36;99080.47;;;-0.43;100.00
45357;BME280;31092;51.924;21.448;2023-11-21T01:29:02;99091.78;;;-0.41;100.00
45357;BME280;31092;51.924;21.448;2023-11-21T01:31:27;99122.41;;;-0.28;100.00
45357;BME280;31092;51.924;21.448;2023-11-21T01:33:55;99113.16;;;-0.33;100.00
45357;BME280;31092;51.924;21.448;2023-11-21T01:36:21;99116.53;;;-0.31;100.00
45357;BME280;31092;51.924;21.448;2023-11-21T01:38:47;99086.03;;;-0.58;100.00
45357;BME280;31092;51.924;21.448;2023-11-21T01:41:13;99124.34;;;-0.41;100.00
45357;BME280;31092;51.924;21.448;2023-11-21T01:43:39;99118.00;;;-0.50;100.00
45357;BME280;31092;51.924;21.448;2023-11-21T01:46:05;99128.91;;;-0.43;100.00
45357;BME280;31092;51.924;21.448;2023-11-21T01:48:31;99123.03;;;-0.46;100.00
45357;BME280;31092;51.924;21.448;2023-11-21T01:50:58;99033.50;;;-1.06;100.00
45357;BME280;31092;51.924;21.448;2023-11-21T01:53:26;99027.00;;;-1.13;100.00
45357;BME280;31092;51.924;21.448;2023-11-21T01:55:54;99089.78;;;-0.83;100.00
45357;BME280;31092;51.924;21.448;2023-11-21T01:58:20;99017.91;;;-1.31;100.00
45357;BME280;31092;51.924;21.448;2023-11-21T02:00:47;99074.19;;;-0.97;100.00
45357;BME280;31092;51.924;21.448;2023-11-21T02:03:15;99102.53;;;-0.77;100.00
45357;BME280;31092;51.924;21.448;2023-11-21T02:05:41;99032.03;;;-1.21;100.00
45357;BME280;31092;51.924;21.448;2023-11-21T02:08:07;99073.47;;;-0.99;100.00
45357;BME280;31092;51.924;21.448;2023-11-21T02:10:34;99056.78;;;-1.11;100.00
45357;BME280;31092;51.924;21.448;2023-11-21T02:13:02;99100.88;;;-0.78;100.00
45357;BME280;31092;51.924;21.448;2023-11-21T02:15:28;99035.66;;;-1.22;100.00
45357;BME280;31092;51.924;21.448;2023-11-21T02:17:54;99075.41;;;-1.01;100.00
45357;BME280;31092;51.924;21.448;2023-11-21T02:20:21;99135.91;;;-0.64;100.00
45357;BME280;31092;51.924;21.448;2023-11-21T02:22:51;99026.16;;;-1.36;100.00
45357;BME280;31092;51.924;21.448;2023-11-21T02:25:24;99126.69;;;-0.81;100.00
45357;BME280;31092;51.924;21.448;2023-11-21T02:27:50;99034.59;;;-1.42;100.00
45357;BME280;31092;51.924;21.448;2023-11-21T02:30:16;99135.34;;;-0.79;100.00
45357;BME280;31092;51.924;21.448;2023-11-21T02:32:42;99044.53;;;-1.34;100.00
45357;BME280;31092;51.924;21.448;2023-11-21T02:35:20;99044.91;;;-1.28;100.00
45357;BME280;31092;51.924;21.448;2023-11-21T02:37:53;99055.47;;;-1.28;100.00
45357;BME280;31092;51.924;21.448;2023-11-21T02:40:18;99008.66;;;-1.59;100.00
45357;BME280;31092;51.924;21.448;2023-11-21T02:42:48;99057.38;;;-1.30;100.00
45357;BME280;31092;51.924;21.448;2023-11-21T02:45:17;99054.75;;;-1.41;100.00
45357;BME280;31092;51.924;21.448;2023-11-21T02:47:43;99045.84;;;-1.51;100.00
45357;BME280;31092;51.924;21.448;2023-11-21T02:50:09;99159.25;;;-0.81;100.00
45357;BME280;31092;51.924;21.448;2023-11-21T02:52:35;99050.75;;;-1.47;100.00
45357;BME280;31092;51.924;21.448;2023-11-21T02:55:04;98917.41;;;-2.31;100.00
45357;BME280;31092;51.924;21.448;2023-11-21T02:57:29;99049.47;;;-1.52;100.00
45357;BME280;31092;51.924;21.448;2023-11-21T02:59:55;99067.44;;;-1.46;100.00
45357;BME280;31092;51.924;21.448;2023-11-21T03:02:21;99125.25;;;-1.08;100.00
45357;BME280;31092;51.924;21.448;2023-11-21T03:04:47;99138.81;;;-1.01;100.00
45357;BME280;31092;51.924;21.448;2023-11-21T03:07:16;99146.97;;;-1.04;100.00
45357;BME280;31092;51.924;21.448;2023-11-21T03:09:45;99151.34;;;-1.03;100.00
45357;BME280;31092;51.924;21.448;2023-11-21T03:12:10;99141.81;;;-1.17;100.00
45357;BME280;31092;51.924;21.448;2023-11-21T03:14:38;99153.00;;;-1.02;100.00
45357;BME280;31092;51.924;21.448;2023-11-21T03:17:04;99071.06;;;-1.47;100.00
45357;BME280;31092;51.924;21.448;2023-11-21T03:19:30;99031.88;;;-1.76;100.00
45357;BME280;31092;51.924;21.448;2023-11-21T03:21:56;99121.53;;;-1.28;100.00
45357;BME280;31092;51.924;21.448;2023-11-21T03:24:21;99081.97;;;-1.63;100.00
45357;BME280;31092;51.924;21.448;2023-11-21T03:26:48;99185.31;;;-1.10;100.00
45357;BME280;31092;51.924;21.448;2023-11-21T03:29:14;99107.88;;;-1.57;100.00
45357;BME280;31092;51.924;21.448;2023-11-21T03:31:40;99157.31;;;-1.24;100.00
45357;BME280;31092;51.924;21.448;2023-11-21T03:34:06;98954.00;;;-2.50;100.00
45357;BME280;31092;51.924;21.448;2023-11-21T03:36:31;99192.03;;;-1.06;100.00
45357;BME280;31092;51.924;21.448;2023-11-21T03:38:57;99172.66;;;-1.17;100.00
45357;BME280;31092;51.924;21.448;2023-11-21T03:41:22;99174.00;;;-1.23;100.00
45357;BME280;31092;51.924;21.448;2023-11-21T03:43:48;99098.13;;;-1.67;100.00
45357;BME280;31092;51.924;21.448;2023-11-21T03:46:14;99194.31;;;-1.12;100.00
45357;BME280;31092;51.924;21.448;2023-11-21T03:48:39;99093.66;;;-1.78;100.00
45357;BME280;31092;51.924;21.448;2023-11-21T03:51:05;99098.72;;;-1.75;100.00
45357;BME280;31092;51.924;21.448;2023-11-21T03:53:31;99215.44;;;-1.12;100.00
45357;BME280;31092;51.924;21.448;2023-11-21T03:55:57;99099.69;;;-1.76;100.00
45357;BME280;31092;51.924;21.448;2023-11-21T03:58:23;99065.19;;;-1.97;100.00
45357;BME280;31092;51.924;21.448;2023-11-21T04:00:48;99140.66;;;-1.59;100.00
45357;BME280;31092;51.924;21.448;2023-11-21T04:03:17;99128.03;;;-1.67;100.00
45357;BME280;31092;51.924;21.448;2023-11-21T04:05:42;99220.09;;;-1.27;100.00
45357;BME280;31092;51.924;21.448;2023-11-21T04:08:08;99226.94;;;-1.25;100.00
45357;BME280;31092;51.924;21.448;2023-11-21T04:10:33;99205.91;;;-1.37;100.00
45357;BME280;31092;51.924;21.448;2023-11-21T04:12:59;99201.81;;;-1.41;100.00
45357;BME280;31092;51.924;21.448;2023-11-21T04:15:25;99161.50;;;-1.67;100.00
45357;BME280;31092;51.924;21.448;2023-11-21T04:17:51;99154.38;;;-1.78;100.00
45357;BME280;31092;51.924;21.448;2023-11-21T04:20:17;99130.81;;;-1.93;100.00
45357;BME280;31092;51.924;21.448;2023-11-21T04:22:43;99183.78;;;-1.72;100.00
45357;BME280;31092;51.924;21.448;2023-11-21T04:25:10;99115.38;;;-2.10;100.00
45357;BME280;31092;51.924;21.448;2023-11-21T04:27:39;99072.47;;;-2.36;100.00
45357;BME280;31092;51.924;21.448;2023-11-21T04:30:05;99157.13;;;-1.80;100.00
45357;BME280;31092;51.924;21.448;2023-11-21T04:32:31;99221.84;;;-1.39;100.00
45357;BME280;31092;51.924;21.448;2023-11-21T04:34:57;99121.03;;;-2.03;100.00
45357;BME280;31092;51.924;21.448;2023-11-21T04:37:23;99217.66;;;-1.41;100.00
45357;BME280;31092;51.924;21.448;2023-11-21T04:39:48;99195.25;;;-1.60;100.00
45357;BME280;31092;51.924;21.448;2023-11-21T04:42:14;99125.25;;;-2.01;100.00
45357;BME280;31092;51.924;21.448;2023-11-21T04:44:40;99109.78;;;-2.05;100.00
45357;BME280;31092;51.924;21.448;2023-11-21T04:47:06;99150.28;;;-1.82;100.00
45357;BME280;31092;51.924;21.448;2023-11-21T04:49:33;99227.13;;;-1.39;100.00
45357;BME280;31092;51.924;21.448;2023-11-21T04:51:58;99127.69;;;-1.98;100.00
45357;BME280;31092;51.924;21.448;2023-11-21T04:54:24;99165.78;;;-1.78;100.00
45357;BME280;31092;51.924;21.448;2023-11-21T04:56:50;99264.38;;;-1.31;100.00
45357;BME280;31092;51.924;21.448;2023-11-21T04:59:15;99151.06;;;-1.93;100.00
45357;BME280;31092;51.924;21.448;2023-11-21T05:01:44;99148.41;;;-2.04;100.00
45357;BME280;31092;51.924;21.448;2023-11-21T05:04:09;99151.38;;;-2.09;100.00
45357;BME280;31092;51.924;21.448;2023-11-21T05:06:35;99163.88;;;-2.00;100.00
45357;BME280;31092;51.924;21.448;2023-11-21T05:09:00;99162.56;;;-2.05;100.00
45357;BME280;31092;51.924;21.448;2023-11-21T05:11:27;99169.09;;;-2.11;100.00
45357;BME280;31092;51.924;21.448;2023-11-21T05:13:53;99186.78;;;-2.00;100.00
45357;BME280;31092;51.924;21.448;2023-11-21T05:16:21;99250.41;;;-1.68;100.00
45357;BME280;31092;51.924;21.448;2023-11-21T05:18:47;99202.31;;;-1.96;100.00
45357;BME280;31092;51.924;21.448;2023-11-21T05:21:13;99245.31;;;-1.58;100.00
45357;BME280;31092;51.924;21.448;2023-11-21T05:23:40;99164.88;;;-2.13;100.00
45357;BME280;31092;51.924;21.448;2023-11-21T05:26:05;99225.41;;;-1.75;100.00
45357;BME280;31092;51.924;21.448;2023-11-21T05:28:31;99203.00;;;-1.94;100.00
45357;BME280;31092;51.924;21.448;2023-11-21T05:30:56;99240.47;;;-1.64;100.00
45357;BME280;31092;51.924;21.448;2023-11-21T05:33:22;99197.75;;;-1.94;100.00
45357;BME280;31092;51.924;21.448;2023-11-21T05:35:47;99185.84;;;-1.99;100.00
45357;BME280;31092;51.924;21.448;2023-11-21T05:38:15;99179.00;;;-2.02;100.00
45357;BME280;31092;51.924;21.448;2023-11-21T05:40:41;99269.47;;;-1.52;100.00
45357;BME280;31092;51.924;21.448;2023-11-21T05:43:06;99190.88;;;-1.96;100.00
45357;BME280;31092;51.924;21.448;2023-11-21T05:45:32;99285.00;;;-1.36;100.00
45357;BME280;31092;51.924;21.448;2023-11-21T05:47:58;99272.81;;;-1.50;100.00
45357;BME280;31092;51.924;21.448;2023-11-21T05:50:24;99287.03;;;-1.39;100.00
45357;BME280;31092;51.924;21.448;2023-11-21T05:52:49;99286.03;;;-1.50;100.00
45357;BME280;31092;51.924;21.448;2023-11-21T05:55:15;99327.66;;;-1.29;100.00
45357;BME280;31092;51.924;21.448;2023-11-21T05:57:42;99235.91;;;-1.86;100.00
45357;BME280;31092;51.924;21.448;2023-11-21T06:00:13;99303.09;;;-1.42;100.00
45357;BME280;31092;51.924;21.448;2023-11-21T06:02:52;99218.00;;;-1.94;100.00
45357;BME280;31092;51.924;21.448;2023-11-21T06:05:25;99303.84;;;-1.40;100.00
45357;BME280;31092;51.924;21.448;2023-11-21T06:07:51;99223.78;;;-1.89;100.00
45357;BME280;31092;51.924;21.448;2023-11-21T06:10:20;99252.78;;;-1.76;100.00
45357;BME280;31092;51.924;21.448;2023-11-21T06:12:46;99288.66;;;-1.50;100.00
45357;BME280;31092;51.924;21.448;2023-11-21T06:15:12;99316.25;;;-1.30;100.00
45357;BME280;31092;51.924;21.448;2023-11-21T06:17:41;99230.09;;;-1.79;100.00
45357;BME280;31092;51.924;21.448;2023-11-21T06:20:09;99308.56;;;-1.33;100.00
45357;BME280;31092;51.924;21.448;2023-11-21T06:22:43;99235.69;;;-1.83;100.00
45357;BME280;31092;51.924;21.448;2023-11-21T06:25:10;99318.56;;;-1.25;100.00
45357;BME280;31092;51.924;21.448;2023-11-21T06:27:40;99312.38;;;-1.37;100.00
45357;BME280;31092;51.924;21.448;2023-11-21T06:30:06;99251.72;;;-1.74;100.00
45357;BME280;31092;51.924;21.448;2023-11-21T06:32:34;99343.56;;;-1.18;100.00
45357;BME280;31092;51.924;21.448;2023-11-21T06:35:01;99275.53;;;-1.62;100.00
45357;BME280;31092;51.924;21.448;2023-11-21T06:37:37;99242.88;;;-1.85;100.00
45357;BME280;31092;51.924;21.448;2023-11-21T06:40:04;99355.72;;;-1.15;100.00
45357;BME280;31092;51.924;21.448;2023-11-21T06:42:30;99254.06;;;-1.82;100.00
45357;BME280;31092;51.924;21.448;2023-11-21T06:44:56;99341.94;;;-1.32;100.00
45357;BME280;31092;51.924;21.448;2023-11-21T06:47:25;99359.75;;;-1.23;100.00
45357;BME280;31092;51.924;21.448;2023-11-21T06:49:52;99355.38;;;-1.35;100.00
45357;BME280;31092;51.924;21.448;2023-11-21T06:52:18;99365.97;;;-1.35;100.00
45357;BME280;31092;51.924;21.448;2023-11-21T06:54:44;99327.66;;;-1.53;100.00
45357;BME280;31092;51.924;21.448;2023-11-21T06:57:11;99316.09;;;-1.63;100.00
45357;BME280;31092;51.924;21.448;2023-11-21T06:59:36;99360.16;;;-1.40;100.00
45357;BME280;31092;51.924;21.448;2023-11-21T07:02:02;99271.69;;;-1.82;100.00
45357;BME280;31092;51.924;21.448;2023-11-21T07:04:27;99366.22;;;-1.27;100.00
45357;BME280;31092;51.924;21.448;2023-11-21T07:06:54;99268.34;;;-1.84;100.00
45357;BME280;31092;51.924;21.448;2023-11-21T07:09:19;99244.00;;;-2.01;100.00
45357;BME280;31092;51.924;21.448;2023-11-21T07:11:48;99365.28;;;-1.26;100.00
45357;BME280;31092;51.924;21.448;2023-11-21T07:14:15;99367.19;;;-1.28;100.00
45357;BME280;31092;51.924;21.448;2023-11-21T07:16:41;99270.44;;;-1.89;100.00
45357;BME280;31092;51.924;21.448;2023-11-21T07:19:07;99281.75;;;-1.87;100.00
45357;BME280;31092;51.924;21.448;2023-11-21T07:21:36;99362.06;;;-1.42;100.00
45357;BME280;31092;51.924;21.448;2023-11-21T07:24:04;99287.25;;;-1.90;100.00
45357;BME280;31092;51.924;21.448;2023-11-21T07:26:31;99393.50;;;-1.26;100.00
45357;BME280;31092;51.924;21.448;2023-11-21T07:28:57;99295.16;;;-1.90;100.00
45357;BME280;31092;51.924;21.448;2023-11-21T07:31:23;99297.94;;;-1.92;100.00
45357;BME280;31092;51.924;21.448;2023-11-21T07:33:49;99402.69;;;-1.32;100.00
45357;BME280;31092;51.924;21.448;2023-11-21T07:36:16;99362.59;;;-1.50;100.00
45357;BME280;31092;51.924;21.448;2023-11-21T07:38:44;99405.84;;;-1.27;100.00
45357;BME280;31092;51.924;21.448;2023-11-21T07:41:10;99297.31;;;-1.96;100.00
45357;BME280;31092;51.924;21.448;2023-11-21T07:43:36;99309.41;;;-1.93;100.00
45357;BME280;31092;51.924;21.448;2023-11-21T07:46:03;99398.09;;;-1.41;100.00
45357;BME280;31092;51.924;21.448;2023-11-21T07:48:29;99311.75;;;-1.88;100.00
45357;BME280;31092;51.924;21.448;2023-11-21T07:50:55;99290.78;;;-2.03;100.00
45357;BME280;31092;51.924;21.448;2023-11-21T07:53:21;99323.09;;;-1.75;100.00
45357;BME280;31092;51.924;21.448;2023-11-21T07:55:47;99238.50;;;-2.34;100.00
45357;BME280;31092;51.924;21.448;2023-11-21T07:58:12;99379.53;;;-1.52;100.00
45357;BME280;31092;51.924;21.448;2023-11-21T08:00:38;99337.03;;;-1.73;100.00
45357;BME280;31092;51.924;21.448;2023-11-21T08:03:05;99412.19;;;-1.29;100.00
45357;BME280;31092;51.924;21.448;2023-11-21T08:05:31;99405.47;;;-1.33;100.00
45357;BME280;31092;51.924;21.448;2023-11-21T08:07:57;99414.13;;;-1.31;100.00
45357;BME280;31092;51.924;21.448;2023-11-21T08:10:22;99364.97;;;-1.58;100.00
45357;BME280;31092;51.924;21.448;2023-11-21T08:12:48;99374.81;;;-1.60;100.00
45357;BME280;31092;51.924;21.448;2023-11-21T08:15:15;99355.91;;;-1.66;100.00
45357;BME280;31092;51.924;21.448;2023-11-21T08:17:41;99415.69;;;-1.29;100.00
45357;BME280;31092;51.924;21.448;2023-11-21T08:20:07;99340.28;;;-1.70;100.00
45357;BME280;31092;51.924;21.448;2023-11-21T08:22:34;99414.50;;;-1.25;100.00
45357;BME280;31092;51.924;21.448;2023-11-21T08:24:59;99357.66;;;-1.54;100.00
45357;BME280;31092;51.924;21.448;2023-11-21T08:27:25;99280.31;;;-2.04;100.00
45357;BME280;31092;51.924;21.448;2023-11-21T08:29:50;99327.44;;;-1.74;100.00
45357;BME280;31092;51.924;21.448;2023-11-21T08:32:18;99425.47;;;-1.18;100.00
45357;BME280;31092;51.924;21.448;2023-11-21T08:34:43;99421.72;;;-1.27;100.00
45357;BME280;31092;51.924;21.448;2023-11-21T08:37:15;99384.69;;;-1.51;100.00
45357;BME280;31092;51.924;21.448;2023-11-21T08:39:40;99362.72;;;-1.51;100.00
45357;BME280;31092;51.924;21.448;2023-11-21T08:42:07;99416.50;;;-1.15;100.00
45357;BME280;31092;51.924;21.448;2023-11-21T08:44:33;99352.31;;;-1.65;100.00
45357;BME280;31092;51.924;21.448;2023-11-21T08:46:58;99354.41;;;-1.58;100.00
45357;BME280;31092;51.924;21.448;2023-11-21T08:49:24;99440.75;;;-1.10;100.00
45357;BME280;31092;51.924;21.448;2023-11-21T08:51:52;99422.38;;;-1.36;100.00
45357;BME280;31092;51.924;21.448;2023-11-21T08:54:20;99372.59;;;-1.66;100.00
45357;BME280;31092;51.924;21.448;2023-11-21T08:56:46;99361.34;;;-1.81;100.00
45357;BME280;31092;51.924;21.448;2023-11-21T08:59:13;99377.81;;;-1.77;100.00
45357;BME280;31092;51.924;21.448;2023-11-21T09:01:39;99421.13;;;-1.43;100.00
45357;BME280;31092;51.924;21.448;2023-11-21T09:04:05;99356.28;;;-1.84;100.00
45357;BME280;31092;51.924;21.448;2023-11-21T09:06:31;99364.59;;;-1.77;100.00
45357;BME280;31092;51.924;21.448;2023-11-21T09:08:56;99353.41;;;-1.81;100.00
45357;BME280;31092;51.924;21.448;2023-11-21T09:11:22;99342.25;;;-1.84;100.00
45357;BME280;31092;51.924;21.448;2023-11-21T09:13:49;99361.13;;;-1.78;100.00
45357;BME280;31092;51.924;21.448;2023-11-21T09:16:16;99376.50;;;-1.72;100.00
45357;BME280;31092;51.924;21.448;2023-11-21T09:18:42;99388.31;;;-1.64;100.00
45357;BME280;31092;51.924;21.448;2023-11-21T09:21:08;99461.63;;;-1.18;100.00
45357;BME280;31092;51.924;21.448;2023-11-21T09:23:35;99438.41;;;-1.26;100.00
45357;BME280;31092;51.924;21.448;2023-11-21T09:26:00;99432.84;;;-1.34;100.00
45357;BME280;31092;51.924;21.448;2023-11-21T09:28:27;99373.88;;;-1.72;100.00
45357;BME280;31092;51.924;21.448;2023-11-21T09:30:53;99346.88;;;-1.88;100.00
45357;BME280;31092;51.924;21.448;2023-11-21T09:33:19;99374.50;;;-1.68;100.00
45357;BME280;31092;51.924;21.448;2023-11-21T09:35:44;99438.84;;;-1.32;100.00
45357;BME280;31092;51.924;21.448;2023-11-21T09:38:10;99409.94;;;-1.47;100.00
45357;BME280;31092;51.924;21.448;2023-11-21T09:40:37;99468.50;;;-1.16;100.00
45357;BME280;31092;51.924;21.448;2023-11-21T09:43:07;99359.41;;;-1.79;100.00
45357;BME280;31092;51.924;21.448;2023-11-21T09:45:38;99366.78;;;-1.71;100.00
45357;BME280;31092;51.924;21.448;2023-11-21T09:48:04;99440.53;;;-1.31;100.00
45357;BME280;31092;51.924;21.448;2023-11-21T09:50:32;99452.09;;;-1.21;100.00
45357;BME280;31092;51.924;21.448;2023-11-21T09:53:17;99418.47;;;-1.43;100.00
45357;BME280;31092;51.924;21.448;2023-11-21T09:55:44;99388.66;;;-1.69;100.00
45357;BME280;31092;51.924;21.448;2023-11-21T09:58:10;99362.41;;;-1.83;100.00
45357;BME280;31092;51.924;21.448;2023-11-21T10:00:43;99394.44;;;-1.64;100.00
45357;BME280;31092;51.924;21.448;2023-11-21T10:03:09;99474.06;;;-1.08;100.00
45357;BME280;31092;51.924;21.448;2023-11-21T10:05:36;99471.53;;;-1.09;100.00
45357;BME280;31092;51.924;21.448;2023-11-21T10:08:04;99434.78;;;-1.25;100.00
45357;BME280;31092;51.924;21.448;2023-11-21T10:10:32;99377.75;;;-1.64;100.00
45357;BME280;31092;51.924;21.448;2023-11-21T10:13:02;99456.56;;;-1.22;100.00
45357;BME280;31092;51.924;21.448;2023-11-21T10:15:30;99482.94;;;-1.09;100.00
45357;BME280;31092;51.924;21.448;2023-11-21T10:17:56;99458.16;;;-1.19;100.00
45357;BME280;31092;51.924;21.448;2023-11-21T10:20:25;99493.94;;;-1.02;100.00
45357;BME280;31092;51.924;21.448;2023-11-21T10:22:51;99464.88;;;-1.15;100.00
45357;BME280;31092;51.924;21.448;2023-11-21T10:25:17;99476.91;;;-1.11;100.00
45357;BME280;31092;51.924;21.448;2023-11-21T10:27:47;99391.28;;;-1.56;100.00
45357;BME280;31092;51.924;21.448;2023-11-21T10:30:15;99386.00;;;-1.69;100.00
45357;BME280;31092;51.924;21.448;2023-11-21T10:32:44;99437.91;;;-1.31;100.00
45357;BME280;31092;51.924;21.448;2023-11-21T10:35:10;99446.44;;;-1.28;100.00
45357;BME280;31092;51.924;21.448;2023-11-21T10:37:39;99368.38;;;-1.69;100.00
45357;BME280;31092;51.924;21.448;2023-11-21T10:40:11;99368.59;;;-1.72;100.00
45357;BME280;31092;51.924;21.448;2023-11-21T10:42:40;99408.13;;;-1.46;100.00
45357;BME280;31092;51.924;21.448;2023-11-21T10:45:07;99478.91;;;-1.02;100.00
45357;BME280;31092;51.924;21.448;2023-11-21T10:47:43;99481.22;;;-0.97;100.00
45357;BME280;31092;51.924;21.448;2023-11-21T10:50:09;99460.22;;;-1.11;100.00
45357;BME280;31092;51.924;21.448;2023-11-21T10:52:37;99409.38;;;-1.39;100.00
45357;BME280;31092;51.924;21.448;2023-11-21T10:55:16;99401.69;;;-1.42;100.00
45357;BME280;31092;51.924;21.448;2023-11-21T10:57:45;99407.81;;;-1.41;100.00
45357;BME280;31092;51.924;21.448;2023-11-21T11:00:14;99474.38;;;-1.00;100.00
45357;BME280;31092;51.924;21.448;2023-11-21T11:02:40;99377.94;;;-1.55;100.00
45357;BME280;31092;51.924;21.448;2023-11-21T11:05:07;99480.78;;;-0.91;100.00
45357;BME280;31092;51.924;21.448;2023-11-21T11:07:38;99376.78;;;-1.51;100.00
45357;BME280;31092;51.924;21.448;2023-11-21T11:10:08;99379.47;;;-1.39;100.00
45357;BME280;31092;51.924;21.448;2023-11-21T11:12:40;99486.53;;;-0.73;100.00
45357;BME280;31092;51.924;21.448;2023-11-21T11:15:07;99469.41;;;-0.80;100.00
45357;BME280;31092;51.924;21.448;2023-11-21T11:17:36;99387.59;;;-1.30;100.00
45357;BME280;31092;51.924;21.448;2023-11-21T11:20:05;99474.38;;;-0.76;100.00
45357;BME280;31092;51.924;21.448;2023-11-21T11:28:15;99446.31;;;-1.13;100.00
45357;BME280;31092;51.924;21.448;2023-11-21T11:36:21;99393.03;;;-1.57;100.00
45357;BME280;31092;51.924;21.448;2023-11-21T11:38:49;99419.31;;;-1.42;100.00
45357;BME280;31092;51.924;21.448;2023-11-21T11:41:26;99492.97;;;-1.01;100.00
45357;BME280;31092;51.924;21.448;2023-11-21T11:43:53;99408.88;;;-1.57;100.00
45357;BME280;31092;51.924;21.448;2023-11-21T11:46:18;99466.72;;;-1.28;100.00
45357;BME280;31092;51.924;21.448;2023-11-21T11:48:48;99492.63;;;-1.21;100.00
45357;BME280;31092;51.924;21.448;2023-11-21T11:51:15;99484.78;;;-1.22;100.00
45357;BME280;31092;51.924;21.448;2023-11-21T11:53:43;99446.06;;;-1.47;100.00
45357;BME280;31092;51.924;21.448;2023-11-21T11:56:23;99514.53;;;-1.07;100.00
45357;BME280;31092;51.924;21.448;2023-11-21T11:58:54;99511.81;;;-1.06;100.00
45357;BME280;31092;51.924;21.448;2023-11-21T12:01:20;99516.34;;;-1.08;100.00
45357;BME280;31092;51.924;21.448;2023-11-21T12:04:26;99518.91;;;-1.06;100.00
45357;BME280;31092;51.924;21.448;2023-11-21T12:07:00;99516.91;;;-1.15;100.00
45357;BME280;31092;51.924;21.448;2023-11-21T12:09:31;99508.53;;;-1.09;100.00
45357;BME280;31092;51.924;21.448;2023-11-21T12:11:57;99430.97;;;-1.58;100.00
45357;BME280;31092;51.924;21.448;2023-11-21T12:14:22;99513.50;;;-1.17;100.00
45357;BME280;31092;51.924;21.448;2023-11-21T12:16:48;99458.94;;;-1.42;100.00
45357;BME280;31092;51.924;21.448;2023-11-21T12:19:14;99510.66;;;-1.14;100.00
45357;BME280;31092;51.924;21.448;2023-11-21T12:21:40;99419.06;;;-1.76;100.00
45357;BME280;31092;51.924;21.448;2023-11-21T12:24:14;99532.53;;;-1.00;100.00
45357;BME280;31092;51.924;21.448;2023-11-21T12:26:40;99461.16;;;-1.36;100.00
45357;BME280;31092;51.924;21.448;2023-11-21T12:29:05;99432.78;;;-1.58;100.00
45357;BME280;31092;51.924;21.448;2023-11-21T12:31:33;99523.56;;;-1.10;100.00
45357;BME280;31092;51.924;21.448;2023-11-21T12:34:00;99418.97;;;-1.75;100.00
45357;BME280;31092;51.924;21.448;2023-11-21T12:36:26;99522.81;;;-1.12;100.00
45357;BME280;31092;51.924;21.448;2023-11-21T12:38:51;99453.56;;;-1.54;100.00
45357;BME280;31092;51.924;21.448;2023-11-21T12:41:17;99439.22;;;-1.62;100.00
45357;BME280;31092;51.924;21.448;2023-11-21T12:43:43;99527.25;;;-1.12;100.00
45357;BME280;31092;51.924;21.448;2023-11-21T12:46:10;99428.38;;;-1.71;100.00
45357;BME280;31092;51.924;21.448;2023-11-21T12:48:41;99428.81;;;-1.77;100.00
45357;BME280;31092;51.924;21.448;2023-11-21T12:51:11;99443.88;;;-1.66;100.00